Time;durP1;ratioP1;P1;durP2;ratioP2;P2;SDS_P1;SDS_P2;PMS_P1;PMS_P2;Temp;Humidity;BMP_temperature;BMP_pressure;BME280_temperature;BME280_humidity;BME280_pressure;Samples;Min_cycle;Max_cycle;Signal;HPM_P1;HPM_P2
2022/12/21 00:02:39;;;;;;;;;;;;;;;18.43;34.66;95617.00;10386346;28;2702;-57
2022/12/21 00:07:50;;;;;;;;;;;;;;;18.41;34.73;95619.09;10392276;28;2163;-46
2022/12/21 00:13:00;;;;;;;;;;;;;;;18.37;34.79;95610.19;10400487;28;2613;-47
2022/12/21 00:18:00;;;;;;;;;;;;;;;18.33;34.71;95614.38;10389446;28;2660;-49
2022/12/21 00:23:00;;;;;;;;;;;;;;;18.31;34.71;95608.59;10385511;28;2525;-47
2022/12/21 00:28:01;;;;;;;;;;;;;;;18.24;34.76;95608.06;10389036;28;5227;-48
2022/12/21 00:33:02;;;;;;;;;;;;;;;18.24;34.75;95608.84;10386625;28;2139;-48
2022/12/21 00:38:02;;;;;;;;;;;;;;;18.18;34.65;95596.78;10404927;28;2692;-48
2022/12/21 00:43:03;;;;;;;;;;;;;;;18.22;34.57;95591.81;10389033;28;2610;-53
2022/12/21 00:48:03;;;;;;;;;;;;;;;18.18;34.54;95593.38;10392121;28;2605;-48
2022/12/21 00:53:11;;;;;;;;;;;;;;;18.14;34.53;95605.44;10390345;28;2557;-47
2022/12/21 00:58:12;;;;;;;;;;;;;;;18.13;34.54;95606.50;10398866;28;2758;-49
2022/12/21 01:03:12;;;;;;;;;;;;;;;18.11;34.47;95605.97;10411756;28;2685;-52
2022/12/21 01:08:13;;;;;;;;;;;;;;;18.07;34.52;95613.59;10401025;28;2090;-52
2022/12/21 01:13:14;;;;;;;;;;;;;;;18.09;34.42;95619.38;10397164;28;2625;-48
2022/12/21 01:18:14;;;;;;;;;;;;;;;18.03;34.54;95611.75;10403139;28;2599;-47
2022/12/21 01:23:15;;;;;;;;;;;;;;;18.04;34.46;95615.94;10394502;28;2645;-48
2022/12/21 01:28:15;;;;;;;;;;;;;;;18.03;34.32;95622.22;10400700;28;5014;-48
2022/12/21 01:33:16;;;;;;;;;;;;;;;18.01;34.34;95611.22;10394220;28;2621;-47
2022/12/21 01:38:26;;;;;;;;;;;;;;;17.99;34.41;95611.44;10396785;28;2560;-49
2022/12/21 01:43:45;;;;;;;;;;;;;;;18.02;34.42;95610.94;10396054;28;2596;-49
2022/12/21 01:48:48;;;;;;;;;;;;;;;17.96;34.36;95598.06;10398204;28;2112;-48
2022/12/21 01:53:50;;;;;;;;;;;;;;;17.95;34.31;95592.03;10397151;28;2120;-53
2022/12/21 01:58:50;;;;;;;;;;;;;;;17.95;34.33;95586.03;10420829;28;2583;-47
2022/12/21 02:03:53;;;;;;;;;;;;;;;17.93;34.21;95588.13;10401905;28;2632;-50
2022/12/21 02:08:57;;;;;;;;;;;;;;;17.87;34.32;95575.00;10398938;28;2560;-48
2022/12/21 02:13:58;;;;;;;;;;;;;;;17.87;34.29;95568.94;10401572;28;2628;-48
2022/12/21 02:19:16;;;;;;;;;;;;;;;17.89;34.19;95562.41;10409501;28;2628;-49
2022/12/21 02:24:26;;;;;;;;;;;;;;;17.84;34.19;95562.41;10398010;28;2560;-49
2022/12/21 02:29:44;;;;;;;;;;;;;;;17.84;34.13;95574.72;10390673;28;5061;-48
2022/12/21 02:34:47;;;;;;;;;;;;;;;17.80;34.11;95577.06;10402099;28;2608;-47
2022/12/21 02:40:03;;;;;;;;;;;;;;;17.80;34.20;95587.56;10411175;28;2605;-46
2022/12/21 02:45:27;;;;;;;;;;;;;;;17.80;34.14;95595.41;10413387;28;2182;-48
2022/12/21 02:50:29;;;;;;;;;;;;;;;17.81;34.08;95602.25;10394698;28;2564;-50
2022/12/21 02:55:29;;;;;;;;;;;;;;;17.77;34.10;95611.69;10415692;28;2168;-48
2022/12/21 03:00:29;;;;;;;;;;;;;;;17.76;34.12;95614.56;10401054;28;2669;-47
2022/12/21 03:05:33;;;;;;;;;;;;;;;17.73;33.98;95615.88;10408254;28;2583;-48
2022/12/21 03:10:52;;;;;;;;;;;;;;;17.71;34.03;95615.34;10390824;28;2607;-48
2022/12/21 03:15:52;;;;;;;;;;;;;;;17.70;34.07;95610.38;10386558;28;2175;-49
2022/12/21 03:20:55;;;;;;;;;;;;;;;17.69;33.93;95606.16;10387338;28;2561;-47
2022/12/21 03:26:03;;;;;;;;;;;;;;;17.66;34.17;95599.59;10410330;28;2721;-49
2022/12/21 03:31:05;;;;;;;;;;;;;;;17.73;34.00;95599.34;10389584;28;5362;-52
2022/12/21 03:36:08;;;;;;;;;;;;;;;17.75;33.93;95608.53;10385999;28;2613;-49
2022/12/21 03:41:09;;;;;;;;;;;;;;;17.72;34.03;95603.78;10388744;28;2590;-52
2022/12/21 03:46:15;;;;;;;;;;;;;;;17.82;33.76;95601.22;10401333;28;2511;-47
2022/12/21 03:51:20;;;;;;;;;;;;;;;17.75;33.90;95598.03;10400995;28;2617;-48
2022/12/21 03:56:22;;;;;;;;;;;;;;;17.78;33.77;95587.03;10404616;28;2605;-46
2022/12/21 04:01:42;;;;;;;;;;;;;;;17.80;33.88;95584.16;10400617;28;2580;-47
2022/12/21 04:06:42;;;;;;;;;;;;;;;17.83;33.78;95584.44;10394700;28;2565;-48
2022/12/21 04:17:01;;;;;;;;;;;;;;;17.85;33.69;95586.78;10394633;28;2583;-46
2022/12/21 04:22:02;;;;;;;;;;;;;;;17.86;33.74;95578.69;10410908;28;2640;-46
2022/12/21 04:28:07;;;;;;;;;;;;;;;17.87;33.70;95577.63;10384977;28;4915;-48
2022/12/21 04:32:31;;;;;;;;;;;;;;;17.93;33.62;95580.25;10394680;28;2530;-50
2022/12/21 04:37:31;;;;;;;;;;;;;;;17.91;33.74;95588.38;10388601;28;2627;-48
2022/12/21 04:42:31;;;;;;;;;;;;;;;17.94;33.51;95589.69;10393068;28;2621;-48
2022/12/21 04:47:31;;;;;;;;;;;;;;;17.92;33.60;95587.34;10391441;28;2954;-48
2022/12/21 04:52:41;;;;;;;;;;;;;;;17.90;33.75;95586.81;10393669;28;2601;-48
2022/12/21 04:57:41;;;;;;;;;;;;;;;17.91;33.65;95582.34;10400430;28;2203;-47
2022/12/21 05:02:41;;;;;;;;;;;;;;;17.96;33.69;95583.13;10389244;28;2611;-53
2022/12/21 05:07:41;;;;;;;;;;;;;;;17.96;33.58;95579.72;10398191;28;2127;-48
2022/12/21 05:12:42;;;;;;;;;;;;;;;17.96;33.55;95582.34;10397118;28;2697;-47
2022/12/21 05:17:48;;;;;;;;;;;;;;;17.99;33.57;95579.22;10393777;28;2171;-47
2022/12/21 05:22:49;;;;;;;;;;;;;;;18.02;33.48;95579.47;10384603;28;2629;-48
2022/12/21 05:27:49;;;;;;;;;;;;;;;17.95;33.60;95583.41;10393423;28;4967;-49
2022/12/21 05:32:49;;;;;;;;;;;;;;;18.01;33.57;95588.38;10393333;28;2735;-49
2022/12/21 05:37:50;;;;;;;;;;;;;;;18.00;33.62;95583.41;10388120;28;2632;-50
2022/12/21 05:42:50;;;;;;;;;;;;;;;18.02;33.52;95583.94;10399231;28;2502;-47
2022/12/21 05:47:50;;;;;;;;;;;;;;;18.01;33.55;95596.25;10400033;28;2163;-47
2022/12/21 05:52:50;;;;;;;;;;;;;;;18.04;33.63;95594.94;10402144;28;2560;-50
2022/12/21 05:57:51;;;;;;;;;;;;;;;18.01;33.63;95590.22;10402908;28;2199;-48
2022/12/21 06:02:51;;;;;;;;;;;;;;;17.97;33.61;95595.19;10399186;28;2579;-49
2022/12/21 06:07:52;;;;;;;;;;;;;;;18.06;33.48;95593.63;10403837;28;2530;-47
2022/12/21 06:12:53;;;;;;;;;;;;;;;18.06;33.45;95588.38;10401330;28;2610;-47
2022/12/21 06:17:53;;;;;;;;;;;;;;;18.03;33.59;95596.78;10397203;28;2596;-46
2022/12/21 06:22:54;;;;;;;;;;;;;;;18.12;33.58;95595.22;10396724;28;2557;-47
2022/12/21 06:27:54;;;;;;;;;;;;;;;18.21;33.57;95600.75;10397166;28;4927;-46
2022/12/21 06:32:54;;;;;;;;;;;;;;;18.32;33.44;95599.69;10399515;28;2595;-49
2022/12/21 06:37:55;;;;;;;;;;;;;;;18.35;33.34;95596.53;10398040;28;2579;-48
2022/12/21 06:42:55;;;;;;;;;;;;;;;18.43;33.30;95603.88;10404027;28;2630;-45
2022/12/21 06:47:55;;;;;;;;;;;;;;;18.52;33.19;95608.38;10398358;28;2182;-46
2022/12/21 06:52:56;;;;;;;;;;;;;;;18.55;33.23;95612.31;10400247;28;2623;-46
2022/12/21 06:57:56;;;;;;;;;;;;;;;18.64;32.92;95613.34;10405302;28;2660;-46
2022/12/21 07:02:58;;;;;;;;;;;;;;;18.65;33.00;95617.53;10399897;28;2613;-46
2022/12/21 07:07:58;;;;;;;;;;;;;;;18.71;32.83;95618.34;10398306;28;2680;-45
2022/12/21 07:12:59;;;;;;;;;;;;;;;18.74;32.91;95610.72;10395746;28;2609;-49
2022/12/21 07:18:01;;;;;;;;;;;;;;;18.74;32.85;95609.91;10396413;28;2090;-46
2022/12/21 07:23:01;;;;;;;;;;;;;;;18.79;32.70;95623.06;10397471;28;2516;-51
2022/12/21 07:28:01;;;;;;;;;;;;;;;18.83;32.69;95624.09;10393782;28;4911;-46
2022/12/21 07:33:02;;;;;;;;;;;;;;;18.83;32.72;95621.47;10401542;28;2581;-46
2022/12/21 07:38:02;;;;;;;;;;;;;;;18.82;32.73;95623.31;10400442;28;2701;-47
2022/12/21 07:43:07;;;;;;;;;;;;;;;18.78;32.77;95621.47;10402611;28;2617;-47
2022/12/21 07:48:07;;;;;;;;;;;;;;;18.73;32.47;95624.13;10397504;28;2674;-47
2022/12/21 07:53:07;;;;;;;;;;;;;;;18.72;32.58;95622.53;10403727;28;2128;-49
2022/12/21 07:58:08;;;;;;;;;;;;;;;18.74;32.75;95626.47;10399284;28;2709;-50
2022/12/21 08:03:08;;;;;;;;;;;;;;;18.73;32.62;95619.66;10399513;28;2630;-46
2022/12/21 08:08:08;;;;;;;;;;;;;;;18.76;32.77;95623.56;10377501;28;2608;-49
2022/12/21 08:13:09;;;;;;;;;;;;;;;18.72;32.50;95615.44;10399689;28;2107;-47
2022/12/21 08:18:09;;;;;;;;;;;;;;;18.73;32.80;95619.66;10394253;28;2561;-48
2022/12/21 08:23:10;;;;;;;;;;;;;;;18.74;32.59;95612.53;10402890;28;2564;-47
2022/12/21 08:28:10;;;;;;;;;;;;;;;18.76;32.75;95608.59;10396352;28;2669;-50
2022/12/21 08:33:10;;;;;;;;;;;;;;;18.77;32.76;95612.03;10398479;28;2536;-49
2022/12/21 08:38:11;;;;;;;;;;;;;;;18.80;32.52;95614.91;10395947;28;2230;-48
2022/12/21 08:43:11;;;;;;;;;;;;;;;18.83;32.55;95613.59;10399459;28;2605;-48
2022/12/21 08:48:21;;;;;;;;;;;;;;;18.83;32.57;95609.13;10396425;28;2703;-47
2022/12/21 08:53:22;;;;;;;;;;;;;;;18.84;32.46;95615.16;10401921;28;2178;-50
2022/12/21 08:58:22;;;;;;;;;;;;;;;18.86;32.61;95605.16;10398950;28;2664;-47
2022/12/21 09:03:23;;;;;;;;;;;;;;;18.87;32.64;95615.44;10396094;28;2218;-47
2022/12/21 09:08:23;;;;;;;;;;;;;;;18.89;32.63;95617.78;10389939;28;2696;-49
2022/12/21 09:13:26;;;;;;;;;;;;;;;18.92;32.60;95619.91;10400287;28;2537;-49
2022/12/21 09:18:26;;;;;;;;;;;;;;;18.89;32.52;95610.69;10406661;28;2600;-46
2022/12/21 09:23:26;;;;;;;;;;;;;;;18.88;32.67;95603.84;10404677;28;2615;-50
2022/12/21 09:28:27;;;;;;;;;;;;;;;18.91;32.72;95605.97;10403987;28;4919;-51
2022/12/21 09:33:27;;;;;;;;;;;;;;;18.86;32.73;95600.72;10399245;28;2155;-49
2022/12/21 09:38:28;;;;;;;;;;;;;;;18.82;32.62;95604.13;10406021;28;2116;-48
2022/12/21 09:43:48;;;;;;;;;;;;;;;18.78;32.89;95590.75;10402717;28;2583;-48
2022/12/21 09:48:51;;;;;;;;;;;;;;;18.75;32.80;95582.63;10389108;28;2746;-46
2022/12/21 09:54:05;;;;;;;;;;;;;;;18.69;32.97;95579.22;10406357;28;2116;-49
2022/12/21 09:59:08;;;;;;;;;;;;;;;18.63;32.96;95582.88;10398960;28;2557;-47
2022/12/21 10:04:08;;;;;;;;;;;;;;;18.57;32.96;95576.06;10417213;28;2165;-46
2022/12/21 10:09:10;;;;;;;;;;;;;;;18.56;33.08;95587.63;10404368;28;2649;-48
2022/12/21 10:14:30;;;;;;;;;;;;;;;18.57;34.76;95584.75;10405433;28;2604;-47
2022/12/21 10:20:05;;;;;;;;;;;;;;;18.54;35.10;95595.00;10398601;28;2618;-46
2022/12/21 10:25:13;;;;;;;;;;;;;;;18.49;35.13;95590.53;10393145;28;2577;-46
2022/12/21 10:30:14;;;;;;;;;;;;;;;18.53;35.28;95588.16;10402386;28;5006;-48
2022/12/21 10:35:18;;;;;;;;;;;;;;;18.48;35.28;95585.56;10400294;28;2550;-45
2022/12/21 10:40:19;;;;;;;;;;;;;;;18.44;35.54;95577.41;10413738;28;2161;-45
2022/12/21 10:45:20;;;;;;;;;;;;;;;18.43;35.54;95583.72;10398295;28;2783;-49
2022/12/21 10:50:25;;;;;;;;;;;;;;;18.40;35.94;95578.19;10393629;28;2677;-46
2022/12/21 10:55:26;;;;;;;;;;;;;;;18.38;36.04;95561.91;10405921;28;2093;-47
2022/12/21 11:00:29;;;;;;;;;;;;;;;18.32;36.24;95560.34;10400325;28;2178;-47
2022/12/21 11:05:33;;;;;;;;;;;;;;;18.30;36.41;95551.94;10399323;28;3017;-48
2022/12/21 11:10:34;;;;;;;;;;;;;;;18.28;36.56;95548.81;10402544;28;2528;-46
2022/12/21 11:15:34;;;;;;;;;;;;;;;18.28;36.59;95554.06;10402226;28;2570;-48
2022/12/21 11:20:34;;;;;;;;;;;;;;;18.27;36.79;95557.72;10396692;28;2628;-46
2022/12/21 11:25:35;;;;;;;;;;;;;;;18.21;36.82;95537.78;10415220;28;2565;-46
2022/12/21 11:30:35;;;;;;;;;;;;;;;18.18;37.01;95533.84;10400886;28;5006;-45
2022/12/21 11:35:35;;;;;;;;;;;;;;;18.15;37.19;95523.09;10402021;28;2640;-48
2022/12/21 11:40:36;;;;;;;;;;;;;;;18.12;37.34;95515.72;10413635;28;2591;-47
2022/12/21 11:45:43;;;;;;;;;;;;;;;18.10;37.33;95510.75;10410251;28;2681;-46
2022/12/21 11:50:49;;;;;;;;;;;;;;;18.09;37.45;95505.78;10394946;28;2140;-47
2022/12/21 11:55:52;;;;;;;;;;;;;;;18.06;37.39;95503.66;10397850;28;2111;-49
2022/12/21 12:01:04;;;;;;;;;;;;;;;18.08;37.41;95504.19;10400897;28;2127;-45
2022/12/21 12:06:08;;;;;;;;;;;;;;;18.03;37.50;95494.50;10411724;28;2147;-45
2022/12/21 12:11:27;;;;;;;;;;;;;;;18.02;37.47;95495.53;10400360;28;2569;-50
2022/12/21 12:16:33;;;;;;;;;;;;;;;17.99;37.39;95488.19;10392953;28;2595;-47
2022/12/21 12:21:33;;;;;;;;;;;;;;;17.97;37.52;95485.03;10392985;28;2591;-46
2022/12/21 12:26:34;;;;;;;;;;;;;;;17.95;37.55;95481.91;10398902;28;5120;-47
2022/12/21 12:31:53;;;;;;;;;;;;;;;17.94;37.41;95493.44;10401592;28;2591;-49
2022/12/21 12:36:58;;;;;;;;;;;;;;;17.92;37.29;95489.50;10396297;28;2152;-49
2022/12/21 12:42:02;;;;;;;;;;;;;;;17.91;37.32;95495.81;10412616;28;2611;-49
2022/12/21 12:47:13;;;;;;;;;;;;;;;17.88;37.32;95497.13;10410069;28;2127;-50
2022/12/21 12:52:17;;;;;;;;;;;;;;;17.87;37.37;95490.28;10402870;28;2664;-47
2022/12/21 12:57:20;;;;;;;;;;;;;;;17.82;37.37;95490.31;10404394;28;2576;-49
2022/12/21 13:02:28;;;;;;;;;;;;;;;17.82;37.47;95492.94;10407993;28;2152;-50
2022/12/21 13:07:33;;;;;;;;;;;;;;;17.80;37.39;95493.16;10410547;28;2552;-48
2022/12/21 13:12:36;;;;;;;;;;;;;;;17.82;37.34;95482.44;10391984;28;2169;-46
2022/12/21 13:18:09;;;;;;;;;;;;;;;17.78;37.27;95478.78;10407082;28;2616;-48
2022/12/21 13:23:11;;;;;;;;;;;;;;;17.78;37.31;95492.66;10390446;28;2704;-47
2022/12/21 13:28:19;;;;;;;;;;;;;;;17.76;37.31;95499.22;10407752;28;5026;-46
2022/12/21 13:33:20;;;;;;;;;;;;;;;17.74;37.23;95496.84;10404055;28;2217;-46
2022/12/21 13:38:25;;;;;;;;;;;;;;;17.74;37.18;95503.94;10407106;28;2599;-49
2022/12/21 13:43:26;;;;;;;;;;;;;;;17.76;36.90;95499.22;10404845;28;2129;-48
2022/12/21 13:48:28;;;;;;;;;;;;;;;17.75;37.21;95508.91;10402939;28;2134;-50
2022/12/21 13:53:28;;;;;;;;;;;;;;;17.76;37.20;95507.09;10406428;28;2567;-46
2022/12/21 13:58:40;;;;;;;;;;;;;;;17.77;37.19;95506.81;10405988;28;2218;-47
2022/12/21 14:03:41;;;;;;;;;;;;;;;17.80;37.00;95514.16;10415228;28;2673;-48
2022/12/21 14:08:44;;;;;;;;;;;;;;;17.84;36.91;95502.13;10405327;28;2175;-46
2022/12/21 14:13:48;;;;;;;;;;;;;;;17.84;36.94;95503.94;10415098;28;2590;-49
2022/12/21 14:18:52;;;;;;;;;;;;;;;17.88;36.80;95500.53;10396429;28;2622;-47
2022/12/21 14:23:59;;;;;;;;;;;;;;;17.93;36.66;95501.59;10419164;28;2570;-48
2022/12/21 14:29:17;;;;;;;;;;;;;;;17.93;36.63;95509.47;10403529;28;4984;-49
2022/12/21 14:34:17;;;;;;;;;;;;;;;17.94;36.65;95495.28;10403589;28;2677;-43
2022/12/21 14:39:36;;;;;;;;;;;;;;;17.92;36.71;95498.19;10400474;28;2662;-49
2022/12/21 14:44:53;;;;;;;;;;;;;;;18.04;36.42;95492.66;10404018;28;2151;-46
2022/12/21 14:49:54;;;;;;;;;;;;;;;17.98;36.65;95491.88;10400375;28;2469;-49
2022/12/21 14:54:57;;;;;;;;;;;;;;;18.03;36.44;95496.34;10400603;28;2969;-46
2022/12/21 15:00:04;;;;;;;;;;;;;;;18.08;36.34;95496.31;10402182;28;2150;-49
2022/12/21 15:05:05;;;;;;;;;;;;;;;18.07;36.34;95502.63;10399700;28;2642;-50
2022/12/21 15:10:09;;;;;;;;;;;;;;;18.06;36.49;95501.03;10410409;28;2651;-47
2022/12/21 15:15:28;;;;;;;;;;;;;;;18.15;36.27;95502.09;10414552;28;2616;-46
2022/12/21 15:20:42;;;;;;;;;;;;;;;18.16;36.21;95508.91;10399963;28;2661;-51
2022/12/21 15:25:43;;;;;;;;;;;;;;;18.16;36.21;95506.28;10402752;28;2568;-49
2022/12/21 15:30:45;;;;;;;;;;;;;;;18.15;36.24;95497.66;10383718;28;4974;-47
2022/12/21 15:35:48;;;;;;;;;;;;;;;18.16;36.13;95495.78;10398174;28;2584;-46
2022/12/21 15:40:55;;;;;;;;;;;;;;;18.12;36.20;95497.38;10404080;28;2561;-46
2022/12/21 15:46:00;;;;;;;;;;;;;;;18.14;36.10;95482.94;10397965;28;2119;-46
2022/12/21 15:51:08;;;;;;;;;;;;;;;18.14;36.11;95475.06;10400443;28;2104;-49
2022/12/21 15:56:09;;;;;;;;;;;;;;;18.24;35.88;95474.25;10396369;28;2527;-46
2022/12/21 16:01:16;;;;;;;;;;;;;;;18.32;35.85;95471.13;10407650;28;2570;-47
2022/12/21 16:06:23;;;;;;;;;;;;;;;18.40;35.65;95471.34;10396555;28;2611;-50
2022/12/21 16:11:24;;;;;;;;;;;;;;;18.46;35.31;95480.84;10396337;28;2601;-52
2022/12/21 16:16:24;;;;;;;;;;;;;;;18.50;35.27;95481.09;10392043;28;2663;-50
2022/12/21 16:21:31;;;;;;;;;;;;;;;18.59;35.07;95485.50;10382257;28;2131;-51
2022/12/21 16:26:31;;;;;;;;;;;;;;;18.66;35.08;95488.66;10398260;28;5046;-50
2022/12/21 16:31:31;;;;;;;;;;;;;;;18.69;35.09;95492.59;10393833;28;2584;-46
2022/12/21 16:36:32;;;;;;;;;;;;;;;18.73;35.14;95487.59;10392248;28;2593;-48
2022/12/21 16:41:32;;;;;;;;;;;;;;;18.81;35.04;95489.66;10397463;28;2600;-46
2022/12/21 16:46:35;;;;;;;;;;;;;;;18.82;35.07;95485.97;10394424;28;2615;-46
2022/12/21 16:51:37;;;;;;;;;;;;;;;18.86;35.09;95490.41;10401898;28;2667;-45
2022/12/21 16:56:41;;;;;;;;;;;;;;;18.87;35.04;95497.25;10401827;28;2578;-47
2022/12/21 17:01:44;;;;;;;;;;;;;;;18.89;34.90;95492.50;10395599;28;2559;-45
2022/12/21 17:06:47;;;;;;;;;;;;;;;18.90;35.05;95496.69;10387144;28;2613;-50
2022/12/21 17:11:49;;;;;;;;;;;;;;;18.93;34.79;95498.00;10394449;28;2592;-47
2022/12/21 17:17:05;;;;;;;;;;;;;;;18.96;34.85;95503.50;10403222;28;2182;-46
2022/12/21 17:22:17;;;;;;;;;;;;;;;18.99;34.92;95508.22;10407513;28;2614;-47
2022/12/21 17:27:21;;;;;;;;;;;;;;;18.99;34.85;95508.22;10397267;28;5086;-48
2022/12/21 17:32:21;;;;;;;;;;;;;;;19.03;34.85;95511.88;10399106;28;2668;-47
2022/12/21 17:37:25;;;;;;;;;;;;;;;19.08;34.90;95518.97;10404384;28;2604;-49
2022/12/21 17:42:25;;;;;;;;;;;;;;;19.09;35.02;95518.69;10408818;28;2606;-52
2022/12/21 17:47:26;;;;;;;;;;;;;;;19.11;34.85;95519.22;10407746;28;2816;-48
2022/12/21 17:52:27;;;;;;;;;;;;;;;19.15;35.01;95517.63;10419741;28;2231;-47
2022/12/21 17:57:27;;;;;;;;;;;;;;;19.16;34.89;95518.41;10400547;28;2534;-51
2022/12/21 18:02:28;;;;;;;;;;;;;;;19.17;35.01;95512.88;10400652;28;2614;-49
2022/12/21 18:07:32;;;;;;;;;;;;;;;19.15;35.08;95509.72;10401649;28;2562;-50
2022/12/21 18:12:32;;;;;;;;;;;;;;;19.24;35.41;95508.13;10414086;28;2296;-47
2022/12/21 18:17:33;;;;;;;;;;;;;;;19.26;35.86;95492.06;10403284;28;3198;-47
2022/12/21 18:22:33;;;;;;;;;;;;;;;19.26;36.82;95502.59;10404744;28;3104;-47
2022/12/21 18:27:33;;;;;;;;;;;;;;;19.27;37.55;95493.63;10408444;28;4903;-47
2022/12/21 18:32:34;;;;;;;;;;;;;;;19.27;37.42;95499.69;10397625;28;2875;-46
2022/12/21 18:37:35;;;;;;;;;;;;;;;19.30;37.75;95491.28;10393711;28;2889;-47
2022/12/21 18:42:35;;;;;;;;;;;;;;;19.35;37.65;95493.13;10399917;28;2853;-47
2022/12/21 18:47:36;;;;;;;;;;;;;;;19.39;37.48;95497.53;10398971;28;2453;-48
2022/12/21 18:52:37;;;;;;;;;;;;;;;19.41;37.48;95511.19;10402567;28;2937;-51
2022/12/21 18:57:37;;;;;;;;;;;;;;;19.42;37.34;95507.53;10407619;28;2883;-48
2022/12/21 19:02:39;;;;;;;;;;;;;;;19.47;37.40;95502.22;10401454;28;2922;-48
2022/12/21 19:07:39;;;;;;;;;;;;;;;19.50;37.33;95487.75;10400093;28;2939;-51
2022/12/21 19:12:40;;;;;;;;;;;;;;;19.51;37.23;95486.72;10397598;28;2391;-50
2022/12/21 19:17:41;;;;;;;;;;;;;;;19.56;37.11;95478.00;10398084;28;2813;-49
2022/12/21 19:22:41;;;;;;;;;;;;;;;19.58;36.79;95478.53;10398263;28;2879;-49
2022/12/21 19:27:42;;;;;;;;;;;;;;;19.59;36.96;95474.81;10400802;28;4831;-48
2022/12/21 19:32:43;;;;;;;;;;;;;;;19.59;36.79;95480.88;10412175;28;2383;-45
2022/12/21 19:37:43;;;;;;;;;;;;;;;19.60;36.57;95481.66;10407368;28;2909;-46
2022/12/21 19:42:43;;;;;;;;;;;;;;;19.51;36.46;95478.03;10401941;28;2834;-43
2022/12/21 19:47:44;;;;;;;;;;;;;;;19.52;36.54;95490.09;10402054;28;2874;-46
2022/12/21 19:52:45;;;;;;;;;;;;;;;19.54;36.34;95490.66;10401706;28;2952;-48
2022/12/21 19:57:46;;;;;;;;;;;;;;;19.57;36.19;95477.72;10398618;28;2826;-46
2022/12/21 20:02:47;;;;;;;;;;;;;;;19.60;36.29;95473.78;10392358;28;2445;-47
2022/12/21 20:07:48;;;;;;;;;;;;;;;19.56;35.78;95459.59;10382446;28;2945;-46
2022/12/21 20:12:49;;;;;;;;;;;;;;;19.57;36.14;95448.03;10395278;28;2441;-46
2022/12/21 20:17:50;;;;;;;;;;;;;;;19.58;35.94;95454.88;10403256;28;2970;-49
2022/12/21 20:22:53;;;;;;;;;;;;;;;19.59;35.94;95457.22;10397594;28;2879;-47
2022/12/21 20:27:54;;;;;;;;;;;;;;;19.59;35.69;95453.78;10405649;28;5034;-48
2022/12/21 20:33:04;;;;;;;;;;;;;;;19.61;35.44;95446.41;10400542;28;2936;-47
2022/12/21 20:38:16;;;;;;;;;;;;;;;19.58;35.28;95436.47;10404844;28;2305;-46
2022/12/21 20:48:39;;;;;;;;;;;;;;;19.62;35.58;95421.69;10403429;28;2952;-48
2022/12/21 20:53:39;;;;;;;;;;;;;;;19.67;35.33;95424.28;10397348;28;2429;-46
2022/12/21 20:58:39;;;;;;;;;;;;;;;19.62;35.22;95417.22;10404184;28;2965;-48
2022/12/21 21:03:40;;;;;;;;;;;;;;;19.63;35.55;95408.28;10398120;28;3204;-46
2022/12/21 21:08:40;;;;;;;;;;;;;;;19.63;35.22;95405.66;10402111;28;2437;-48
2022/12/21 21:13:41;;;;;;;;;;;;;;;19.66;35.19;95414.84;10406547;28;2855;-46
2022/12/21 21:18:41;;;;;;;;;;;;;;;19.70;35.52;95418.47;10402284;28;2897;-48
2022/12/21 21:23:42;;;;;;;;;;;;;;;19.69;35.37;95406.38;10401064;28;2995;-46
2022/12/21 21:28:43;;;;;;;;;;;;;;;19.70;35.28;95410.59;10408858;28;4966;-47
2022/12/21 21:33:43;;;;;;;;;;;;;;;19.66;35.23;95407.72;10409813;28;2831;-47
2022/12/21 21:44:16;;;;;;;;;;;;;;;19.72;35.15;95403.97;10416634;28;2429;-46
2022/12/21 21:49:20;;;;;;;;;;;;;;;19.68;35.34;95410.84;10405757;28;2895;-47
2022/12/21 21:54:21;;;;;;;;;;;;;;;19.67;35.19;95411.91;10404073;28;2906;-47
2022/12/21 21:59:21;;;;;;;;;;;;;;;19.69;35.50;95412.44;10399531;28;2840;-46
2022/12/21 22:04:21;;;;;;;;;;;;;;;19.69;35.94;95411.63;10394605;28;2839;-48
2022/12/21 22:09:22;;;;;;;;;;;;;;;19.68;35.97;95410.09;10403072;28;2861;-45
2022/12/21 22:14:24;;;;;;;;;;;;;;;19.64;36.25;95409.81;10398759;28;2892;-46
2022/12/21 22:46:00;;;;;;;;;;;;;;;19.33;36.97;95388.25;10413131;28;2449;-46
2022/12/21 22:51:06;;;;;;;;;;;;;;;19.29;37.06;95384.56;10382571;28;2967;-46
2022/12/21 22:56:07;;;;;;;;;;;;;;;19.26;37.10;95390.38;10396050;28;2832;-49
2022/12/21 23:01:09;;;;;;;;;;;;;;;19.25;37.04;95373.03;10402579;28;2883;-45
2022/12/21 23:06:14;;;;;;;;;;;;;;;19.20;37.02;95367.03;10416006;28;2840;-46
2022/12/21 23:11:33;;;;;;;;;;;;;;;19.20;37.04;95362.56;10398565;28;2961;-48
2022/12/21 23:16:34;;;;;;;;;;;;;;;19.18;36.89;95354.19;10398346;28;2913;-45
2022/12/21 23:43:12;;;;;;;;;;;;;;;18.94;36.94;95334.88;10395394;28;2830;-45
